Terminal Aerodrome Forecast
Issued by NWS

Home | Current Version | Previous Version | Text Only | Print | Product List | Glossary On
Versions: 1 2 3 4 5 6 7 8 9 10 11 12 13 14 15
829
FTUS42 KMLB 221736
TAFFPR
TAF
KFPR 221736Z 2218/2318 21018G30KT P6SM SCT025 BKN035
     FM230000 21018G28KT P6SM VCTS BKN035CB
      TEMPO 2302/2304 25020G40KT 2SM +TSRA BKN015CB
     FM230400 21015G22KT P6SM -SHRA BKN035
     FM230700 22015KT P6SM BKN035=

USA.gov is the U.S. government's official web portal to all federal, state and local government web resources and services.